Archival Weather

Norman Y Mineta San Jose Intl

San Jose, California (KSJC)

Report from: Saturday, February 3, 2024 4:53 PM PST
Current time: Friday, June 14, 2024 4:27 AM PDT

Current weather – Weather history – Daily summaries
Weather forecast

Temperature13.9°C (57.0°F)
Dew point5.0°C (41.0°F)
Winds 8 kts (4.1 m/s, 9.2 mph) South-Southeast (160°)
Visibility10 mi. (16.1 km)
Clouds Few clouds 1,700 ft. (518 m)
Ceiling: Broken clouds 7,500 ft. (2,286 m)
Overcast 10,000 ft. (3,048 m)
Altimeter29.90 in.Hg (1013 mB)
Relative humidity55 %
Density altitude23 ft. (7 m)
Sea-level pressure101.3 kPa (1013 mB, 29.90 in.Hg)
Remarks Automated weather observing station with precipitation discriminator
Flight conditions Visual Meteorological Conditions
Raw dataKSJC 040053Z 16008KT 10SM FEW017 BKN075 OVC100 14/05 A2990 RMK AO2 SLP125 T01390050
An error has occurred. This application may no longer respond until reloaded. Reload 🗙